sensor_id;sensor_type;location;lat;lon;timestamp;P1;durP1;ratioP1;P2;durP2;ratioP2
11123;SDS011;5616;42.692;23.312;2022-10-03T00:02:10;3.33;;;2.73;;
11123;SDS011;5616;42.692;23.312;2022-10-03T00:04:53;4.97;;;2.97;;
11123;SDS011;5616;42.692;23.312;2022-10-03T00:07:38;3.17;;;2.47;;
11123;SDS011;5616;42.692;23.312;2022-10-03T00:10:21;3.47;;;2.77;;
11123;SDS011;5616;42.692;23.312;2022-10-03T00:13:00;3.40;;;2.70;;
11123;SDS011;5616;42.692;23.312;2022-10-03T00:15:34;5.17;;;2.80;;
11123;SDS011;5616;42.692;23.312;2022-10-03T00:18:07;6.90;;;3.03;;
11123;SDS011;5616;42.692;23.312;2022-10-03T00:21:02;5.97;;;3.00;;
11123;SDS011;5616;42.692;23.312;2022-10-03T00:23:43;2.67;;;2.43;;
11123;SDS011;5616;42.692;23.312;2022-10-03T00:26:22;2.70;;;2.50;;
11123;SDS011;5616;42.692;23.312;2022-10-03T00:29:07;6.00;;;2.80;;
11123;SDS011;5616;42.692;23.312;2022-10-03T00:31:50;3.27;;;2.53;;
11123;SDS011;5616;42.692;23.312;2022-10-03T00:34:26;4.07;;;2.27;;
11123;SDS011;5616;42.692;23.312;2022-10-03T00:37:11;2.67;;;2.47;;
11123;SDS011;5616;42.692;23.312;2022-10-03T00:39:53;3.87;;;2.13;;
11123;SDS011;5616;42.692;23.312;2022-10-03T00:45:43;2.30;;;2.10;;
11123;SDS011;5616;42.692;23.312;2022-10-03T00:48:48;4.33;;;2.10;;
11123;SDS011;5616;42.692;23.312;2022-10-03T00:51:44;3.07;;;1.90;;
11123;SDS011;5616;42.692;23.312;2022-10-03T00:54:28;1.93;;;1.80;;
11123;SDS011;5616;42.692;23.312;2022-10-03T00:57:21;3.77;;;2.20;;
11123;SDS011;5616;42.692;23.312;2022-10-03T01:00:13;2.33;;;2.13;;
11123;SDS011;5616;42.692;23.312;2022-10-03T01:02:45;2.73;;;2.40;;
11123;SDS011;5616;42.692;23.312;2022-10-03T01:05:22;2.60;;;2.00;;
11123;SDS011;5616;42.692;23.312;2022-10-03T01:08:03;4.70;;;2.23;;
11123;SDS011;5616;42.692;23.312;2022-10-03T01:10:45;4.60;;;1.93;;
11123;SDS011;5616;42.692;23.312;2022-10-03T01:13:22;2.60;;;2.07;;
11123;SDS011;5616;42.692;23.312;2022-10-03T01:16:04;4.47;;;2.60;;
11123;SDS011;5616;42.692;23.312;2022-10-03T01:18:41;4.37;;;1.90;;
11123;SDS011;5616;42.692;23.312;2022-10-03T01:21:20;3.33;;;1.90;;
11123;SDS011;5616;42.692;23.312;2022-10-03T01:27:01;3.13;;;2.33;;
11123;SDS011;5616;42.692;23.312;2022-10-03T01:29:35;4.87;;;2.27;;
11123;SDS011;5616;42.692;23.312;2022-10-03T01:32:29;2.33;;;2.00;;
11123;SDS011;5616;42.692;23.312;2022-10-03T01:35:08;4.90;;;2.53;;
11123;SDS011;5616;42.692;23.312;2022-10-03T01:37:46;3.00;;;2.20;;
11123;SDS011;5616;42.692;23.312;2022-10-03T01:40:20;3.60;;;2.00;;
11123;SDS011;5616;42.692;23.312;2022-10-03T01:42:56;3.13;;;2.40;;
11123;SDS011;5616;42.692;23.312;2022-10-03T01:45:35;4.17;;;2.40;;
11123;SDS011;5616;42.692;23.312;2022-10-03T01:48:13;2.70;;;2.10;;
11123;SDS011;5616;42.692;23.312;2022-10-03T01:50:49;3.20;;;2.37;;
11123;SDS011;5616;42.692;23.312;2022-10-03T01:53:25;2.70;;;2.45;;
11123;SDS011;5616;42.692;23.312;2022-10-03T01:56:02;5.13;;;2.57;;
11123;SDS011;5616;42.692;23.312;2022-10-03T01:58:40;2.77;;;2.40;;
11123;SDS011;5616;42.692;23.312;2022-10-03T02:01:20;3.67;;;2.70;;
11123;SDS011;5616;42.692;23.312;2022-10-03T02:03:54;4.63;;;2.50;;
11123;SDS011;5616;42.692;23.312;2022-10-03T02:06:31;3.87;;;2.50;;
11123;SDS011;5616;42.692;23.312;2022-10-03T02:09:09;2.80;;;2.30;;
11123;SDS011;5616;42.692;23.312;2022-10-03T02:11:59;2.37;;;2.17;;
11123;SDS011;5616;42.692;23.312;2022-10-03T02:14:32;3.10;;;2.37;;
11123;SDS011;5616;42.692;23.312;2022-10-03T02:17:07;2.30;;;2.10;;
11123;SDS011;5616;42.692;23.312;2022-10-03T02:19:47;3.80;;;2.50;;
11123;SDS011;5616;42.692;23.312;2022-10-03T02:22:27;5.00;;;2.50;;
11123;SDS011;5616;42.692;23.312;2022-10-03T02:25:06;3.10;;;2.33;;
11123;SDS011;5616;42.692;23.312;2022-10-03T02:30:41;2.60;;;2.40;;
11123;SDS011;5616;42.692;23.312;2022-10-03T02:33:35;4.77;;;2.63;;
11123;SDS011;5616;42.692;23.312;2022-10-03T02:39:15;9.33;;;2.60;;
11123;SDS011;5616;42.692;23.312;2022-10-03T02:47:58;3.83;;;2.90;;
11123;SDS011;5616;42.692;23.312;2022-10-03T02:54:06;3.70;;;3.00;;
11123;SDS011;5616;42.692;23.312;2022-10-03T02:57:17;5.83;;;3.17;;
11123;SDS011;5616;42.692;23.312;2022-10-03T03:00:05;3.30;;;3.00;;
11123;SDS011;5616;42.692;23.312;2022-10-03T03:08:54;5.53;;;3.10;;
11123;SDS011;5616;42.692;23.312;2022-10-03T03:11:46;4.50;;;2.80;;
11123;SDS011;5616;42.692;23.312;2022-10-03T03:17:46;5.57;;;3.60;;
11123;SDS011;5616;42.692;23.312;2022-10-03T03:23:35;4.77;;;3.20;;
11123;SDS011;5616;42.692;23.312;2022-10-03T03:26:14;6.03;;;3.13;;
11123;SDS011;5616;42.692;23.312;2022-10-03T03:29:00;3.30;;;3.00;;
11123;SDS011;5616;42.692;23.312;2022-10-03T03:31:35;3.40;;;2.90;;
11123;SDS011;5616;42.692;23.312;2022-10-03T03:34:13;3.83;;;3.33;;
11123;SDS011;5616;42.692;23.312;2022-10-03T03:36:48;4.37;;;2.87;;
11123;SDS011;5616;42.692;23.312;2022-10-03T03:39:32;5.03;;;3.30;;
11123;SDS011;5616;42.692;23.312;2022-10-03T03:42:11;4.63;;;3.17;;
11123;SDS011;5616;42.692;23.312;2022-10-03T03:45:00;5.10;;;3.00;;
11123;SDS011;5616;42.692;23.312;2022-10-03T03:47:36;4.13;;;2.73;;
11123;SDS011;5616;42.692;23.312;2022-10-03T03:50:24;8.13;;;3.03;;
11123;SDS011;5616;42.692;23.312;2022-10-03T03:53:04;5.17;;;3.03;;
11123;SDS011;5616;42.692;23.312;2022-10-03T03:55:53;7.37;;;3.40;;
11123;SDS011;5616;42.692;23.312;2022-10-03T03:58:35;5.23;;;2.97;;
11123;SDS011;5616;42.692;23.312;2022-10-03T04:01:12;4.30;;;2.90;;
11123;SDS011;5616;42.692;23.312;2022-10-03T04:04:05;6.40;;;3.20;;
11123;SDS011;5616;42.692;23.312;2022-10-03T04:06:47;6.50;;;3.27;;
11123;SDS011;5616;42.692;23.312;2022-10-03T04:09:33;6.10;;;3.57;;
11123;SDS011;5616;42.692;23.312;2022-10-03T04:12:18;10.83;;;3.63;;
11123;SDS011;5616;42.692;23.312;2022-10-03T04:14:59;8.77;;;3.63;;
11123;SDS011;5616;42.692;23.312;2022-10-03T04:17:45;9.93;;;4.20;;
11123;SDS011;5616;42.692;23.312;2022-10-03T04:20:44;10.90;;;3.23;;
11123;SDS011;5616;42.692;23.312;2022-10-03T04:23:23;9.35;;;4.30;;
11123;SDS011;5616;42.692;23.312;2022-10-03T04:26:06;5.97;;;3.90;;
11123;SDS011;5616;42.692;23.312;2022-10-03T04:28:46;9.73;;;4.37;;
11123;SDS011;5616;42.692;23.312;2022-10-03T04:31:47;4.87;;;3.73;;
11123;SDS011;5616;42.692;23.312;2022-10-03T04:34:31;6.93;;;3.93;;
11123;SDS011;5616;42.692;23.312;2022-10-03T04:37:14;7.03;;;3.63;;
11123;SDS011;5616;42.692;23.312;2022-10-03T04:39:52;7.73;;;4.20;;
11123;SDS011;5616;42.692;23.312;2022-10-03T04:42:36;6.93;;;3.47;;
11123;SDS011;5616;42.692;23.312;2022-10-03T04:45:17;12.97;;;3.60;;
11123;SDS011;5616;42.692;23.312;2022-10-03T04:47:55;7.97;;;4.03;;
11123;SDS011;5616;42.692;23.312;2022-10-03T04:50:34;6.60;;;4.00;;
11123;SDS011;5616;42.692;23.312;2022-10-03T04:53:20;8.07;;;4.27;;
11123;SDS011;5616;42.692;23.312;2022-10-03T04:56:10;8.90;;;3.77;;
11123;SDS011;5616;42.692;23.312;2022-10-03T04:58:48;10.40;;;4.00;;
11123;SDS011;5616;42.692;23.312;2022-10-03T05:01:23;8.33;;;4.27;;
11123;SDS011;5616;42.692;23.312;2022-10-03T05:03:59;6.27;;;3.90;;
11123;SDS011;5616;42.692;23.312;2022-10-03T05:06:34;11.23;;;3.97;;
11123;SDS011;5616;42.692;23.312;2022-10-03T05:09:20;9.40;;;3.70;;
11123;SDS011;5616;42.692;23.312;2022-10-03T05:11:55;6.93;;;4.07;;
11123;SDS011;5616;42.692;23.312;2022-10-03T05:14:37;10.30;;;4.07;;
11123;SDS011;5616;42.692;23.312;2022-10-03T05:17:15;9.33;;;4.33;;
11123;SDS011;5616;42.692;23.312;2022-10-03T05:19:49;6.80;;;3.87;;
11123;SDS011;5616;42.692;23.312;2022-10-03T05:22:38;7.47;;;4.30;;
11123;SDS011;5616;42.692;23.312;2022-10-03T05:25:26;10.03;;;3.87;;
11123;SDS011;5616;42.692;23.312;2022-10-03T05:28:02;7.00;;;3.70;;
11123;SDS011;5616;42.692;23.312;2022-10-03T05:30:38;11.57;;;3.83;;
11123;SDS011;5616;42.692;23.312;2022-10-03T05:33:13;8.37;;;3.77;;
11123;SDS011;5616;42.692;23.312;2022-10-03T05:35:52;8.57;;;4.00;;
11123;SDS011;5616;42.692;23.312;2022-10-03T05:38:43;10.37;;;4.30;;
11123;SDS011;5616;42.692;23.312;2022-10-03T05:41:25;6.67;;;4.00;;
11123;SDS011;5616;42.692;23.312;2022-10-03T05:44:00;7.10;;;3.93;;
11123;SDS011;5616;42.692;23.312;2022-10-03T05:46:37;9.70;;;4.13;;
11123;SDS011;5616;42.692;23.312;2022-10-03T05:52:19;8.93;;;4.23;;
11123;SDS011;5616;42.692;23.312;2022-10-03T05:55:11;6.00;;;3.77;;
11123;SDS011;5616;42.692;23.312;2022-10-03T05:58:12;9.97;;;3.97;;
11123;SDS011;5616;42.692;23.312;2022-10-03T06:01:07;11.53;;;4.63;;
11123;SDS011;5616;42.692;23.312;2022-10-03T06:03:53;10.80;;;4.70;;
11123;SDS011;5616;42.692;23.312;2022-10-03T06:06:42;10.53;;;4.90;;
11123;SDS011;5616;42.692;23.312;2022-10-03T06:09:39;16.37;;;5.43;;
11123;SDS011;5616;42.692;23.312;2022-10-03T06:12:28;10.77;;;5.20;;
11123;SDS011;5616;42.692;23.312;2022-10-03T06:15:12;9.73;;;5.73;;
11123;SDS011;5616;42.692;23.312;2022-10-03T06:17:56;10.57;;;5.13;;
11123;SDS011;5616;42.692;23.312;2022-10-03T06:20:37;10.73;;;4.93;;
11123;SDS011;5616;42.692;23.312;2022-10-03T06:26:40;9.43;;;5.23;;
11123;SDS011;5616;42.692;23.312;2022-10-03T06:38:41;10.63;;;5.70;;
11123;SDS011;5616;42.692;23.312;2022-10-03T06:44:40;14.27;;;4.87;;
11123;SDS011;5616;42.692;23.312;2022-10-03T06:47:35;15.07;;;5.07;;
11123;SDS011;5616;42.692;23.312;2022-10-03T06:50:21;9.20;;;4.77;;
11123;SDS011;5616;42.692;23.312;2022-10-03T06:53:17;9.30;;;4.10;;
11123;SDS011;5616;42.692;23.312;2022-10-03T07:01:58;11.00;;;3.87;;
11123;SDS011;5616;42.692;23.312;2022-10-03T07:04:58;8.07;;;4.23;;
11123;SDS011;5616;42.692;23.312;2022-10-03T07:07:48;10.63;;;4.30;;
11123;SDS011;5616;42.692;23.312;2022-10-03T07:10:57;4.93;;;4.07;;
11123;SDS011;5616;42.692;23.312;2022-10-03T07:13:50;10.73;;;4.57;;
11123;SDS011;5616;42.692;23.312;2022-10-03T07:16:40;10.50;;;4.73;;
11123;SDS011;5616;42.692;23.312;2022-10-03T07:19:30;12.07;;;5.00;;
11123;SDS011;5616;42.692;23.312;2022-10-03T07:31:36;10.45;;;4.80;;
11123;SDS011;5616;42.692;23.312;2022-10-03T07:34:35;8.27;;;5.10;;
11123;SDS011;5616;42.692;23.312;2022-10-03T07:37:22;8.27;;;4.87;;
11123;SDS011;5616;42.692;23.312;2022-10-03T07:43:47;10.33;;;4.40;;
11123;SDS011;5616;42.692;23.312;2022-10-03T07:46:53;8.17;;;4.37;;
11123;SDS011;5616;42.692;23.312;2022-10-03T07:49:50;8.10;;;3.80;;
11123;SDS011;5616;42.692;23.312;2022-10-03T07:52:49;9.90;;;4.10;;
11123;SDS011;5616;42.692;23.312;2022-10-03T07:55:30;9.40;;;4.30;;
11123;SDS011;5616;42.692;23.312;2022-10-03T08:01:15;14.97;;;4.97;;
11123;SDS011;5616;42.692;23.312;2022-10-03T08:04:06;14.47;;;6.73;;
11123;SDS011;5616;42.692;23.312;2022-10-03T08:07:03;11.23;;;7.30;;
11123;SDS011;5616;42.692;23.312;2022-10-03T08:09:43;9.97;;;6.10;;
11123;SDS011;5616;42.692;23.312;2022-10-03T08:15:44;8.47;;;5.30;;
11123;SDS011;5616;42.692;23.312;2022-10-03T08:18:30;10.17;;;5.60;;
11123;SDS011;5616;42.692;23.312;2022-10-03T08:21:17;7.23;;;5.73;;
11123;SDS011;5616;42.692;23.312;2022-10-03T08:27:06;8.70;;;3.80;;
11123;SDS011;5616;42.692;23.312;2022-10-03T08:33:01;4.27;;;2.30;;
11123;SDS011;5616;42.692;23.312;2022-10-03T08:36:09;2.40;;;1.57;;
11123;SDS011;5616;42.692;23.312;2022-10-03T08:38:56;2.97;;;1.80;;
11123;SDS011;5616;42.692;23.312;2022-10-03T08:54:23;3.73;;;2.00;;
11123;SDS011;5616;42.692;23.312;2022-10-03T08:57:21;4.90;;;1.93;;
11123;SDS011;5616;42.692;23.312;2022-10-03T09:00:12;3.37;;;2.10;;
11123;SDS011;5616;42.692;23.312;2022-10-03T09:09:22;3.37;;;2.23;;
11123;SDS011;5616;42.692;23.312;2022-10-03T09:15:21;2.13;;;1.83;;
11123;SDS011;5616;42.692;23.312;2022-10-03T09:24:15;2.67;;;1.97;;
11123;SDS011;5616;42.692;23.312;2022-10-03T09:27:10;4.07;;;1.60;;
11123;SDS011;5616;42.692;23.312;2022-10-03T09:30:05;2.10;;;1.80;;
11123;SDS011;5616;42.692;23.312;2022-10-03T09:35:43;3.10;;;1.90;;
11123;SDS011;5616;42.692;23.312;2022-10-03T09:38:32;3.87;;;1.87;;
11123;SDS011;5616;42.692;23.312;2022-10-03T09:41:20;3.03;;;1.80;;
11123;SDS011;5616;42.692;23.312;2022-10-03T09:44:14;4.00;;;2.10;;
11123;SDS011;5616;42.692;23.312;2022-10-03T09:46:58;2.30;;;2.10;;
11123;SDS011;5616;42.692;23.312;2022-10-03T09:59:23;3.43;;;2.10;;
11123;SDS011;5616;42.692;23.312;2022-10-03T10:02:04;3.07;;;1.93;;
11123;SDS011;5616;42.692;23.312;2022-10-03T10:04:55;3.97;;;2.17;;
11123;SDS011;5616;42.692;23.312;2022-10-03T10:07:43;2.20;;;1.70;;
11123;SDS011;5616;42.692;23.312;2022-10-03T10:10:51;1.60;;;1.50;;
11123;SDS011;5616;42.692;23.312;2022-10-03T10:16:49;3.20;;;1.43;;
11123;SDS011;5616;42.692;23.312;2022-10-03T10:23:04;3.57;;;1.47;;
11123;SDS011;5616;42.692;23.312;2022-10-03T10:26:03;2.23;;;1.50;;
11123;SDS011;5616;42.692;23.312;2022-10-03T10:29:06;2.73;;;1.40;;
11123;SDS011;5616;42.692;23.312;2022-10-03T10:38:08;3.90;;;1.63;;
11123;SDS011;5616;42.692;23.312;2022-10-03T10:41:27;1.47;;;1.33;;
11123;SDS011;5616;42.692;23.312;2022-10-03T10:44:29;2.47;;;1.40;;
11123;SDS011;5616;42.692;23.312;2022-10-03T10:47:34;1.33;;;1.23;;
11123;SDS011;5616;42.692;23.312;2022-10-03T11:00:15;3.80;;;1.20;;
11123;SDS011;5616;42.692;23.312;2022-10-03T11:15:25;2.63;;;1.33;;
11123;SDS011;5616;42.692;23.312;2022-10-03T11:21:25;1.53;;;1.43;;
11123;SDS011;5616;42.692;23.312;2022-10-03T11:24:30;2.17;;;1.70;;
11123;SDS011;5616;42.692;23.312;2022-10-03T11:27:41;1.70;;;1.60;;
11123;SDS011;5616;42.692;23.312;2022-10-03T11:30:42;2.63;;;2.10;;
11123;SDS011;5616;42.692;23.312;2022-10-03T11:39:43;2.53;;;2.33;;
11123;SDS011;5616;42.692;23.312;2022-10-03T11:42:22;3.13;;;2.83;;
11123;SDS011;5616;42.692;23.312;2022-10-03T11:44:57;4.77;;;3.00;;
11123;SDS011;5616;42.692;23.312;2022-10-03T11:47:38;4.63;;;3.00;;
11123;SDS011;5616;42.692;23.312;2022-10-03T11:53:24;3.17;;;2.97;;
11123;SDS011;5616;42.692;23.312;2022-10-03T11:56:04;3.00;;;2.70;;
11123;SDS011;5616;42.692;23.312;2022-10-03T11:58:50;7.13;;;3.33;;
11123;SDS011;5616;42.692;23.312;2022-10-03T12:01:27;3.30;;;3.00;;
11123;SDS011;5616;42.692;23.312;2022-10-03T12:04:07;3.43;;;3.13;;
11123;SDS011;5616;42.692;23.312;2022-10-03T12:06:58;3.30;;;3.00;;
11123;SDS011;5616;42.692;23.312;2022-10-03T12:09:54;3.40;;;3.10;;
11123;SDS011;5616;42.692;23.312;2022-10-03T12:12:31;3.73;;;3.43;;
11123;SDS011;5616;42.692;23.312;2022-10-03T12:15:13;6.20;;;3.50;;
11123;SDS011;5616;42.692;23.312;2022-10-03T12:17:50;3.90;;;3.20;;
11123;SDS011;5616;42.692;23.312;2022-10-03T12:20:28;2.90;;;2.70;;
11123;SDS011;5616;42.692;23.312;2022-10-03T12:23:01;3.13;;;2.90;;
11123;SDS011;5616;42.692;23.312;2022-10-03T12:25:34;4.27;;;2.70;;
11123;SDS011;5616;42.692;23.312;2022-10-03T12:28:09;2.83;;;2.63;;
11123;SDS011;5616;42.692;23.312;2022-10-03T12:30:44;3.00;;;2.80;;
11123;SDS011;5616;42.692;23.312;2022-10-03T12:33:22;3.00;;;2.80;;
11123;SDS011;5616;42.692;23.312;2022-10-03T12:36:02;3.17;;;2.80;;
11123;SDS011;5616;42.692;23.312;2022-10-03T12:41:41;3.20;;;2.90;;
11123;SDS011;5616;42.692;23.312;2022-10-03T12:44:25;4.03;;;3.03;;
11123;SDS011;5616;42.692;23.312;2022-10-03T12:47:05;3.30;;;2.50;;
11123;SDS011;5616;42.692;23.312;2022-10-03T12:49:49;3.07;;;2.83;;
11123;SDS011;5616;42.692;23.312;2022-10-03T12:52:22;2.77;;;2.53;;
11123;SDS011;5616;42.692;23.312;2022-10-03T12:54:57;4.67;;;2.73;;
11123;SDS011;5616;42.692;23.312;2022-10-03T12:57:41;3.40;;;2.70;;
11123;SDS011;5616;42.692;23.312;2022-10-03T13:00:19;3.57;;;3.27;;
11123;SDS011;5616;42.692;23.312;2022-10-03T13:02:54;3.40;;;3.10;;
11123;SDS011;5616;42.692;23.312;2022-10-03T13:08:40;3.23;;;2.53;;
11123;SDS011;5616;42.692;23.312;2022-10-03T13:11:21;3.43;;;2.33;;
11123;SDS011;5616;42.692;23.312;2022-10-03T13:14:14;2.80;;;2.57;;
11123;SDS011;5616;42.692;23.312;2022-10-03T13:16:57;3.07;;;2.87;;
11123;SDS011;5616;42.692;23.312;2022-10-03T13:19:36;3.77;;;2.60;;
11123;SDS011;5616;42.692;23.312;2022-10-03T13:22:17;2.83;;;2.63;;
11123;SDS011;5616;42.692;23.312;2022-10-03T13:24:57;3.53;;;2.43;;
11123;SDS011;5616;42.692;23.312;2022-10-03T13:27:33;4.57;;;2.57;;
11123;SDS011;5616;42.692;23.312;2022-10-03T13:30:06;2.50;;;2.30;;
11123;SDS011;5616;42.692;23.312;2022-10-03T13:32:43;2.07;;;1.80;;
11123;SDS011;5616;42.692;23.312;2022-10-03T13:35:19;2.30;;;2.10;;
11123;SDS011;5616;42.692;23.312;2022-10-03T13:38:13;3.03;;;2.00;;
11123;SDS011;5616;42.692;23.312;2022-10-03T13:40:50;2.10;;;1.97;;
11123;SDS011;5616;42.692;23.312;2022-10-03T13:43:26;2.13;;;1.93;;
11123;SDS011;5616;42.692;23.312;2022-10-03T13:46:00;2.43;;;1.97;;
11123;SDS011;5616;42.692;23.312;2022-10-03T13:48:29;2.60;;;2.23;;
11123;SDS011;5616;42.692;23.312;2022-10-03T13:50:58;2.40;;;2.20;;
11123;SDS011;5616;42.692;23.312;2022-10-03T13:53:41;2.73;;;2.10;;
11123;SDS011;5616;42.692;23.312;2022-10-03T13:56:19;4.13;;;2.30;;
11123;SDS011;5616;42.692;23.312;2022-10-03T13:59:01;4.80;;;2.37;;
11123;SDS011;5616;42.692;23.312;2022-10-03T14:01:42;3.63;;;2.23;;
11123;SDS011;5616;42.692;23.312;2022-10-03T14:07:10;4.20;;;2.20;;
11123;SDS011;5616;42.692;23.312;2022-10-03T14:10:02;2.33;;;2.13;;
11123;SDS011;5616;42.692;23.312;2022-10-03T14:12:53;10.40;;;2.20;;
11123;SDS011;5616;42.692;23.312;2022-10-03T14:15:38;3.47;;;2.10;;
11123;SDS011;5616;42.692;23.312;2022-10-03T14:18:15;2.17;;;1.97;;
11123;SDS011;5616;42.692;23.312;2022-10-03T14:23:58;6.83;;;2.07;;
11123;SDS011;5616;42.692;23.312;2022-10-03T14:26:37;4.67;;;1.70;;
11123;SDS011;5616;42.692;23.312;2022-10-03T14:29:12;5.67;;;2.10;;
11123;SDS011;5616;42.692;23.312;2022-10-03T14:31:49;2.20;;;2.00;;
11123;SDS011;5616;42.692;23.312;2022-10-03T14:34:28;4.07;;;1.83;;
11123;SDS011;5616;42.692;23.312;2022-10-03T14:37:12;2.30;;;2.10;;
11123;SDS011;5616;42.692;23.312;2022-10-03T14:39:51;2.67;;;2.07;;
11123;SDS011;5616;42.692;23.312;2022-10-03T14:42:34;3.70;;;2.10;;
11123;SDS011;5616;42.692;23.312;2022-10-03T14:45:14;3.50;;;2.30;;
11123;SDS011;5616;42.692;23.312;2022-10-03T14:47:46;2.70;;;2.10;;
11123;SDS011;5616;42.692;23.312;2022-10-03T14:50:16;2.27;;;2.03;;
11123;SDS011;5616;42.692;23.312;2022-10-03T14:52:49;6.80;;;2.70;;
11123;SDS011;5616;42.692;23.312;2022-10-03T14:55:26;4.30;;;2.43;;
11123;SDS011;5616;42.692;23.312;2022-10-03T14:57:58;2.97;;;2.50;;
11123;SDS011;5616;42.692;23.312;2022-10-03T15:00:35;2.63;;;2.37;;
11123;SDS011;5616;42.692;23.312;2022-10-03T15:03:23;2.47;;;2.27;;
11123;SDS011;5616;42.692;23.312;2022-10-03T15:05:58;4.73;;;2.70;;
11123;SDS011;5616;42.692;23.312;2022-10-03T15:08:33;6.27;;;2.60;;
11123;SDS011;5616;42.692;23.312;2022-10-03T15:11:03;2.83;;;2.63;;
11123;SDS011;5616;42.692;23.312;2022-10-03T15:13:32;4.37;;;3.50;;
11123;SDS011;5616;42.692;23.312;2022-10-03T15:16:04;3.30;;;3.00;;
11123;SDS011;5616;42.692;23.312;2022-10-03T15:18:33;5.90;;;3.17;;
11123;SDS011;5616;42.692;23.312;2022-10-03T15:21:01;4.30;;;2.87;;
11123;SDS011;5616;42.692;23.312;2022-10-03T15:23:30;2.93;;;2.57;;
11123;SDS011;5616;42.692;23.312;2022-10-03T15:26:06;5.93;;;2.83;;
11123;SDS011;5616;42.692;23.312;2022-10-03T15:28:35;4.37;;;3.20;;
11123;SDS011;5616;42.692;23.312;2022-10-03T15:31:07;3.33;;;3.03;;
11123;SDS011;5616;42.692;23.312;2022-10-03T15:33:36;4.57;;;3.27;;
11123;SDS011;5616;42.692;23.312;2022-10-03T15:36:07;4.10;;;3.70;;
11123;SDS011;5616;42.692;23.312;2022-10-03T15:38:41;7.13;;;5.30;;
11123;SDS011;5616;42.692;23.312;2022-10-03T15:41:13;6.50;;;4.03;;
11123;SDS011;5616;42.692;23.312;2022-10-03T15:43:42;4.53;;;3.50;;
11123;SDS011;5616;42.692;23.312;2022-10-03T15:46:20;4.00;;;2.97;;
11123;SDS011;5616;42.692;23.312;2022-10-03T15:48:56;6.70;;;3.30;;
11123;SDS011;5616;42.692;23.312;2022-10-03T15:51:26;4.40;;;2.77;;
11123;SDS011;5616;42.692;23.312;2022-10-03T15:53:58;3.53;;;3.20;;
11123;SDS011;5616;42.692;23.312;2022-10-03T15:56:28;5.50;;;3.70;;
11123;SDS011;5616;42.692;23.312;2022-10-03T15:59:00;4.83;;;4.10;;
11123;SDS011;5616;42.692;23.312;2022-10-03T16:01:32;4.27;;;3.00;;
11123;SDS011;5616;42.692;23.312;2022-10-03T16:04:03;4.50;;;4.10;;
11123;SDS011;5616;42.692;23.312;2022-10-03T16:06:36;4.77;;;3.40;;
11123;SDS011;5616;42.692;23.312;2022-10-03T16:09:15;3.50;;;3.10;;
11123;SDS011;5616;42.692;23.312;2022-10-03T16:11:53;5.20;;;3.70;;
11123;SDS011;5616;42.692;23.312;2022-10-03T16:14:30;6.17;;;4.67;;
11123;SDS011;5616;42.692;23.312;2022-10-03T16:17:06;4.83;;;3.80;;
11123;SDS011;5616;42.692;23.312;2022-10-03T16:19:41;4.47;;;3.23;;
11123;SDS011;5616;42.692;23.312;2022-10-03T16:22:20;5.50;;;3.53;;
11123;SDS011;5616;42.692;23.312;2022-10-03T16:25:00;4.57;;;3.30;;
11123;SDS011;5616;42.692;23.312;2022-10-03T16:27:32;6.53;;;3.80;;
11123;SDS011;5616;42.692;23.312;2022-10-03T16:30:19;5.17;;;3.30;;
11123;SDS011;5616;42.692;23.312;2022-10-03T16:32:49;4.30;;;3.27;;
11123;SDS011;5616;42.692;23.312;2022-10-03T16:35:27;4.30;;;3.60;;
11123;SDS011;5616;42.692;23.312;2022-10-03T16:37:58;6.60;;;4.67;;
11123;SDS011;5616;42.692;23.312;2022-10-03T16:40:28;4.90;;;4.10;;
11123;SDS011;5616;42.692;23.312;2022-10-03T16:42:56;8.10;;;4.87;;
11123;SDS011;5616;42.692;23.312;2022-10-03T16:45:25;6.53;;;3.70;;
11123;SDS011;5616;42.692;23.312;2022-10-03T16:47:56;4.97;;;3.80;;
11123;SDS011;5616;42.692;23.312;2022-10-03T16:50:45;4.13;;;3.73;;
11123;SDS011;5616;42.692;23.312;2022-10-03T16:53:16;4.70;;;3.53;;
11123;SDS011;5616;42.692;23.312;2022-10-03T16:55:46;7.53;;;3.30;;
11123;SDS011;5616;42.692;23.312;2022-10-03T16:58:18;3.77;;;3.23;;
11123;SDS011;5616;42.692;23.312;2022-10-03T17:00:49;3.50;;;2.90;;
11123;SDS011;5616;42.692;23.312;2022-10-03T17:03:21;3.80;;;2.67;;
11123;SDS011;5616;42.692;23.312;2022-10-03T17:05:50;2.73;;;2.50;;
11123;SDS011;5616;42.692;23.312;2022-10-03T17:08:22;4.73;;;2.87;;
11123;SDS011;5616;42.692;23.312;2022-10-03T17:10:54;3.67;;;3.17;;
11123;SDS011;5616;42.692;23.312;2022-10-03T17:13:26;2.83;;;2.63;;
11123;SDS011;5616;42.692;23.312;2022-10-03T17:16:06;3.70;;;2.37;;
11123;SDS011;5616;42.692;23.312;2022-10-03T17:18:39;4.10;;;3.23;;
11123;SDS011;5616;42.692;23.312;2022-10-03T17:21:14;3.87;;;3.00;;
11123;SDS011;5616;42.692;23.312;2022-10-03T17:23:47;4.57;;;3.83;;
11123;SDS011;5616;42.692;23.312;2022-10-03T17:26:28;6.13;;;3.53;;
11123;SDS011;5616;42.692;23.312;2022-10-03T17:29:06;6.00;;;3.60;;
11123;SDS011;5616;42.692;23.312;2022-10-03T17:31:42;3.53;;;2.70;;
11123;SDS011;5616;42.692;23.312;2022-10-03T17:34:12;4.97;;;2.97;;
11123;SDS011;5616;42.692;23.312;2022-10-03T17:36:45;3.50;;;2.57;;
11123;SDS011;5616;42.692;23.312;2022-10-03T17:39:26;6.67;;;2.70;;
11123;SDS011;5616;42.692;23.312;2022-10-03T17:42:06;3.50;;;2.93;;
11123;SDS011;5616;42.692;23.312;2022-10-03T17:44:45;4.70;;;3.30;;
11123;SDS011;5616;42.692;23.312;2022-10-03T17:47:25;4.00;;;3.40;;
11123;SDS011;5616;42.692;23.312;2022-10-03T17:49:59;4.33;;;3.93;;
11123;SDS011;5616;42.692;23.312;2022-10-03T17:52:31;5.97;;;3.10;;
11123;SDS011;5616;42.692;23.312;2022-10-03T17:55:04;5.57;;;3.70;;
11123;SDS011;5616;42.692;23.312;2022-10-03T17:57:38;5.37;;;3.10;;
11123;SDS011;5616;42.692;23.312;2022-10-03T18:00:15;4.27;;;3.40;;
11123;SDS011;5616;42.692;23.312;2022-10-03T18:02:45;4.40;;;3.70;;
11123;SDS011;5616;42.692;23.312;2022-10-03T18:05:21;3.90;;;3.20;;
11123;SDS011;5616;42.692;23.312;2022-10-03T18:07:52;5.70;;;4.27;;
11123;SDS011;5616;42.692;23.312;2022-10-03T18:10:22;5.20;;;4.15;;
11123;SDS011;5616;42.692;23.312;2022-10-03T18:12:52;4.13;;;3.30;;
11123;SDS011;5616;42.692;23.312;2022-10-03T18:15:23;8.33;;;3.60;;
11123;SDS011;5616;42.692;23.312;2022-10-03T18:21:18;7.30;;;3.40;;
11123;SDS011;5616;42.692;23.312;2022-10-03T18:24:20;7.17;;;4.20;;
11123;SDS011;5616;42.692;23.312;2022-10-03T18:26:54;6.83;;;4.00;;
11123;SDS011;5616;42.692;23.312;2022-10-03T18:29:31;5.40;;;3.87;;
11123;SDS011;5616;42.692;23.312;2022-10-03T18:32:09;5.77;;;4.00;;
11123;SDS011;5616;42.692;23.312;2022-10-03T18:34:41;6.30;;;3.97;;
11123;SDS011;5616;42.692;23.312;2022-10-03T18:40:17;5.00;;;2.67;;
11123;SDS011;5616;42.692;23.312;2022-10-03T18:42:48;6.33;;;3.00;;
11123;SDS011;5616;42.692;23.312;2022-10-03T18:45:18;3.77;;;2.37;;
11123;SDS011;5616;42.692;23.312;2022-10-03T18:47:49;4.60;;;2.47;;
11123;SDS011;5616;42.692;23.312;2022-10-03T18:50:20;3.50;;;2.73;;
11123;SDS011;5616;42.692;23.312;2022-10-03T18:52:52;4.47;;;2.70;;
11123;SDS011;5616;42.692;23.312;2022-10-03T18:55:24;4.27;;;2.50;;
11123;SDS011;5616;42.692;23.312;2022-10-03T18:57:56;4.57;;;2.10;;
11123;SDS011;5616;42.692;23.312;2022-10-03T19:00:31;5.23;;;2.53;;
11123;SDS011;5616;42.692;23.312;2022-10-03T19:03:07;2.67;;;1.83;;
11123;SDS011;5616;42.692;23.312;2022-10-03T19:05:42;3.40;;;2.10;;
11123;SDS011;5616;42.692;23.312;2022-10-03T19:08:15;3.50;;;1.83;;
11123;SDS011;5616;42.692;23.312;2022-10-03T19:10:47;12.23;;;2.50;;
11123;SDS011;5616;42.692;23.312;2022-10-03T19:13:22;3.67;;;2.30;;
11123;SDS011;5616;42.692;23.312;2022-10-03T19:18:53;6.70;;;2.30;;
11123;SDS011;5616;42.692;23.312;2022-10-03T19:21:27;4.60;;;2.10;;
11123;SDS011;5616;42.692;23.312;2022-10-03T19:23:56;2.80;;;2.13;;